sensor_id;sensor_type;location;lat;lon;timestamp;P1;durP1;ratioP1;P2;durP2;ratioP2
3443;SDS011;1736;52.068;6.968;2023-03-20T00:01:10;41.17;;;20.50;;
3443;SDS011;1736;52.068;6.968;2023-03-20T00:03:38;57.17;;;21.83;;
3443;SDS011;1736;52.068;6.968;2023-03-20T00:06:07;51.77;;;23.57;;
3443;SDS011;1736;52.068;6.968;2023-03-20T00:08:39;62.23;;;23.23;;
3443;SDS011;1736;52.068;6.968;2023-03-20T00:11:07;43.23;;;20.43;;
3443;SDS011;1736;52.068;6.968;2023-03-20T00:13:42;50.37;;;20.97;;
3443;SDS011;1736;52.068;6.968;2023-03-20T00:16:10;47.27;;;22.00;;
3443;SDS011;1736;52.068;6.968;2023-03-20T00:18:37;45.10;;;21.30;;
3443;SDS011;1736;52.068;6.968;2023-03-20T00:21:07;47.63;;;21.20;;
3443;SDS011;1736;52.068;6.968;2023-03-20T00:23:39;48.50;;;20.93;;
3443;SDS011;1736;52.068;6.968;2023-03-20T00:26:07;47.70;;;21.50;;
3443;SDS011;1736;52.068;6.968;2023-03-20T00:28:37;41.70;;;19.20;;
3443;SDS011;1736;52.068;6.968;2023-03-20T00:33:48;48.47;;;19.90;;
3443;SDS011;1736;52.068;6.968;2023-03-20T00:36:15;41.87;;;18.93;;
3443;SDS011;1736;52.068;6.968;2023-03-20T00:38:41;40.63;;;18.80;;
3443;SDS011;1736;52.068;6.968;2023-03-20T00:41:17;42.27;;;19.27;;
3443;SDS011;1736;52.068;6.968;2023-03-20T00:43:47;44.70;;;20.30;;
3443;SDS011;1736;52.068;6.968;2023-03-20T00:46:16;31.37;;;16.57;;
3443;SDS011;1736;52.068;6.968;2023-03-20T00:48:45;36.47;;;17.50;;
3443;SDS011;1736;52.068;6.968;2023-03-20T00:51:12;36.37;;;18.00;;
3443;SDS011;1736;52.068;6.968;2023-03-20T00:53:40;39.53;;;17.60;;
3443;SDS011;1736;52.068;6.968;2023-03-20T00:56:08;39.70;;;17.50;;
3443;SDS011;1736;52.068;6.968;2023-03-20T00:58:52;41.83;;;18.80;;
3443;SDS011;1736;52.068;6.968;2023-03-20T01:01:20;36.63;;;17.83;;
3443;SDS011;1736;52.068;6.968;2023-03-20T01:03:47;35.60;;;17.00;;
3443;SDS011;1736;52.068;6.968;2023-03-20T01:06:13;39.60;;;16.97;;
3443;SDS011;1736;52.068;6.968;2023-03-20T01:08:40;35.57;;;17.33;;
3443;SDS011;1736;52.068;6.968;2023-03-20T01:11:08;40.17;;;18.00;;
3443;SDS011;1736;52.068;6.968;2023-03-20T01:13:37;46.77;;;19.57;;
3443;SDS011;1736;52.068;6.968;2023-03-20T01:16:11;41.23;;;18.77;;
3443;SDS011;1736;52.068;6.968;2023-03-20T01:18:46;38.40;;;17.47;;
3443;SDS011;1736;52.068;6.968;2023-03-20T01:21:13;37.27;;;17.33;;
3443;SDS011;1736;52.068;6.968;2023-03-20T01:23:39;37.27;;;16.53;;
3443;SDS011;1736;52.068;6.968;2023-03-20T01:26:10;34.90;;;16.77;;
3443;SDS011;1736;52.068;6.968;2023-03-20T01:28:46;32.70;;;15.80;;
3443;SDS011;1736;52.068;6.968;2023-03-20T01:31:13;35.90;;;16.00;;
3443;SDS011;1736;52.068;6.968;2023-03-20T01:33:40;32.83;;;15.20;;
3443;SDS011;1736;52.068;6.968;2023-03-20T01:36:10;29.73;;;15.57;;
3443;SDS011;1736;52.068;6.968;2023-03-20T01:38:37;34.17;;;15.73;;
3443;SDS011;1736;52.068;6.968;2023-03-20T01:41:05;31.80;;;14.67;;
3443;SDS011;1736;52.068;6.968;2023-03-20T01:43:35;28.50;;;14.60;;
3443;SDS011;1736;52.068;6.968;2023-03-20T01:46:02;28.93;;;14.30;;
3443;SDS011;1736;52.068;6.968;2023-03-20T01:48:55;27.73;;;13.10;;
3443;SDS011;1736;52.068;6.968;2023-03-20T01:51:28;26.33;;;13.40;;
3443;SDS011;1736;52.068;6.968;2023-03-20T01:53:58;29.47;;;14.13;;
3443;SDS011;1736;52.068;6.968;2023-03-20T01:56:28;34.97;;;15.50;;
3443;SDS011;1736;52.068;6.968;2023-03-20T01:58:59;27.90;;;13.70;;
3443;SDS011;1736;52.068;6.968;2023-03-20T02:01:29;31.17;;;13.07;;
3443;SDS011;1736;52.068;6.968;2023-03-20T02:03:57;30.17;;;15.10;;
3443;SDS011;1736;52.068;6.968;2023-03-20T02:06:23;26.17;;;13.03;;
3443;SDS011;1736;52.068;6.968;2023-03-20T02:08:52;23.73;;;12.20;;
3443;SDS011;1736;52.068;6.968;2023-03-20T02:11:20;26.10;;;12.80;;
3443;SDS011;1736;52.068;6.968;2023-03-20T02:13:49;26.87;;;12.23;;
3443;SDS011;1736;52.068;6.968;2023-03-20T02:16:18;26.50;;;12.13;;
3443;SDS011;1736;52.068;6.968;2023-03-20T02:18:45;23.27;;;12.53;;
3443;SDS011;1736;52.068;6.968;2023-03-20T02:21:21;22.60;;;11.50;;
3443;SDS011;1736;52.068;6.968;2023-03-20T02:27:14;21.23;;;10.80;;
3443;SDS011;1736;52.068;6.968;2023-03-20T02:36:39;22.80;;;11.63;;
3443;SDS011;1736;52.068;6.968;2023-03-20T02:42:16;20.63;;;11.10;;
3443;SDS011;1736;52.068;6.968;2023-03-20T02:44:50;21.90;;;10.50;;
3443;SDS011;1736;52.068;6.968;2023-03-20T02:47:27;18.40;;;10.13;;
3443;SDS011;1736;52.068;6.968;2023-03-20T02:50:03;18.13;;;9.87;;
3443;SDS011;1736;52.068;6.968;2023-03-20T02:52:40;19.00;;;9.33;;
3443;SDS011;1736;52.068;6.968;2023-03-20T02:55:15;18.70;;;9.77;;
3443;SDS011;1736;52.068;6.968;2023-03-20T02:57:48;21.13;;;9.70;;
3443;SDS011;1736;52.068;6.968;2023-03-20T03:00:23;27.20;;;10.60;;
3443;SDS011;1736;52.068;6.968;2023-03-20T03:02:55;17.80;;;10.30;;
3443;SDS011;1736;52.068;6.968;2023-03-20T03:05:29;23.37;;;11.57;;
3443;SDS011;1736;52.068;6.968;2023-03-20T03:08:00;20.60;;;10.13;;
3443;SDS011;1736;52.068;6.968;2023-03-20T03:10:33;19.27;;;10.10;;
3443;SDS011;1736;52.068;6.968;2023-03-20T03:13:03;19.50;;;9.63;;
3443;SDS011;1736;52.068;6.968;2023-03-20T03:15:35;20.60;;;10.63;;
3443;SDS011;1736;52.068;6.968;2023-03-20T03:18:05;23.80;;;10.47;;
3443;SDS011;1736;52.068;6.968;2023-03-20T03:20:37;20.83;;;10.97;;
3443;SDS011;1736;52.068;6.968;2023-03-20T03:23:05;23.37;;;10.27;;
3443;SDS011;1736;52.068;6.968;2023-03-20T03:25:34;22.27;;;10.90;;
3443;SDS011;1736;52.068;6.968;2023-03-20T03:28:06;20.83;;;9.83;;
3443;SDS011;1736;52.068;6.968;2023-03-20T03:30:37;21.53;;;10.50;;
3443;SDS011;1736;52.068;6.968;2023-03-20T03:33:11;23.07;;;11.10;;
3443;SDS011;1736;52.068;6.968;2023-03-20T03:35:41;19.93;;;10.60;;
3443;SDS011;1736;52.068;6.968;2023-03-20T03:38:11;18.90;;;10.60;;
3443;SDS011;1736;52.068;6.968;2023-03-20T03:40:52;23.17;;;11.00;;
3443;SDS011;1736;52.068;6.968;2023-03-20T03:43:32;20.80;;;10.47;;
3443;SDS011;1736;52.068;6.968;2023-03-20T03:46:05;19.60;;;10.57;;
3443;SDS011;1736;52.068;6.968;2023-03-20T03:48:37;18.73;;;9.73;;
3443;SDS011;1736;52.068;6.968;2023-03-20T03:51:09;19.07;;;10.33;;
3443;SDS011;1736;52.068;6.968;2023-03-20T03:53:40;19.23;;;9.80;;
3443;SDS011;1736;52.068;6.968;2023-03-20T03:56:13;21.10;;;10.47;;
3443;SDS011;1736;52.068;6.968;2023-03-20T03:58:46;21.40;;;10.00;;
3443;SDS011;1736;52.068;6.968;2023-03-20T04:01:15;20.03;;;10.70;;
3443;SDS011;1736;52.068;6.968;2023-03-20T04:03:45;17.77;;;9.50;;
3443;SDS011;1736;52.068;6.968;2023-03-20T04:06:14;23.40;;;9.63;;
3443;SDS011;1736;52.068;6.968;2023-03-20T04:08:42;18.70;;;10.87;;
3443;SDS011;1736;52.068;6.968;2023-03-20T04:11:11;24.43;;;11.50;;
3443;SDS011;1736;52.068;6.968;2023-03-20T04:13:42;21.93;;;10.30;;
3443;SDS011;1736;52.068;6.968;2023-03-20T04:16:10;23.00;;;11.80;;
3443;SDS011;1736;52.068;6.968;2023-03-20T04:18:38;24.73;;;11.63;;
3443;SDS011;1736;52.068;6.968;2023-03-20T04:21:05;17.97;;;10.23;;
3443;SDS011;1736;52.068;6.968;2023-03-20T04:23:32;16.63;;;9.60;;
3443;SDS011;1736;52.068;6.968;2023-03-20T04:25:59;19.27;;;10.60;;
3443;SDS011;1736;52.068;6.968;2023-03-20T04:28:27;18.83;;;10.10;;
3443;SDS011;1736;52.068;6.968;2023-03-20T04:30:55;21.20;;;9.33;;
3443;SDS011;1736;52.068;6.968;2023-03-20T04:33:22;15.93;;;8.60;;
3443;SDS011;1736;52.068;6.968;2023-03-20T04:35:50;21.23;;;9.57;;
3443;SDS011;1736;52.068;6.968;2023-03-20T04:38:17;17.43;;;8.63;;
3443;SDS011;1736;52.068;6.968;2023-03-20T04:40:44;17.90;;;9.80;;
3443;SDS011;1736;52.068;6.968;2023-03-20T04:43:12;19.00;;;10.23;;
3443;SDS011;1736;52.068;6.968;2023-03-20T04:45:40;18.20;;;10.10;;
3443;SDS011;1736;52.068;6.968;2023-03-20T04:48:07;22.57;;;10.77;;
3443;SDS011;1736;52.068;6.968;2023-03-20T04:50:34;20.50;;;11.67;;
3443;SDS011;1736;52.068;6.968;2023-03-20T04:53:01;24.10;;;13.57;;
3443;SDS011;1736;52.068;6.968;2023-03-20T04:55:27;23.77;;;13.30;;
3443;SDS011;1736;52.068;6.968;2023-03-20T04:57:54;26.10;;;12.97;;
3443;SDS011;1736;52.068;6.968;2023-03-20T05:00:21;28.37;;;14.33;;
3443;SDS011;1736;52.068;6.968;2023-03-20T05:02:49;23.03;;;13.67;;
3443;SDS011;1736;52.068;6.968;2023-03-20T05:05:15;23.67;;;13.37;;
3443;SDS011;1736;52.068;6.968;2023-03-20T05:07:42;24.03;;;14.60;;
3443;SDS011;1736;52.068;6.968;2023-03-20T05:10:09;23.57;;;12.33;;
3443;SDS011;1736;52.068;6.968;2023-03-20T05:12:36;25.03;;;12.57;;
3443;SDS011;1736;52.068;6.968;2023-03-20T05:15:03;24.63;;;13.07;;
3443;SDS011;1736;52.068;6.968;2023-03-20T05:17:30;20.77;;;11.40;;
3443;SDS011;1736;52.068;6.968;2023-03-20T05:19:58;22.73;;;12.13;;
3443;SDS011;1736;52.068;6.968;2023-03-20T05:22:24;27.10;;;12.17;;
3443;SDS011;1736;52.068;6.968;2023-03-20T05:24:51;21.27;;;11.90;;
3443;SDS011;1736;52.068;6.968;2023-03-20T05:27:17;24.20;;;12.83;;
3443;SDS011;1736;52.068;6.968;2023-03-20T05:29:44;23.30;;;12.00;;
3443;SDS011;1736;52.068;6.968;2023-03-20T05:32:10;20.70;;;10.47;;
3443;SDS011;1736;52.068;6.968;2023-03-20T05:34:37;20.40;;;11.20;;
3443;SDS011;1736;52.068;6.968;2023-03-20T05:37:05;24.50;;;11.03;;
3443;SDS011;1736;52.068;6.968;2023-03-20T05:39:32;18.90;;;9.83;;
3443;SDS011;1736;52.068;6.968;2023-03-20T05:41:58;24.20;;;10.30;;
3443;SDS011;1736;52.068;6.968;2023-03-20T05:44:25;22.70;;;9.97;;
3443;SDS011;1736;52.068;6.968;2023-03-20T05:46:51;23.23;;;9.53;;
3443;SDS011;1736;52.068;6.968;2023-03-20T05:49:18;15.33;;;8.83;;
3443;SDS011;1736;52.068;6.968;2023-03-20T05:51:44;17.60;;;8.73;;
3443;SDS011;1736;52.068;6.968;2023-03-20T05:54:12;15.00;;;8.37;;
3443;SDS011;1736;52.068;6.968;2023-03-20T05:56:39;17.73;;;8.83;;
3443;SDS011;1736;52.068;6.968;2023-03-20T05:59:05;17.10;;;7.97;;
3443;SDS011;1736;52.068;6.968;2023-03-20T06:01:32;13.87;;;8.07;;
3443;SDS011;1736;52.068;6.968;2023-03-20T06:03:59;13.47;;;7.63;;
3443;SDS011;1736;52.068;6.968;2023-03-20T06:06:25;10.23;;;6.43;;
3443;SDS011;1736;52.068;6.968;2023-03-20T06:08:52;15.60;;;7.83;;
3443;SDS011;1736;52.068;6.968;2023-03-20T06:11:19;12.87;;;7.33;;
3443;SDS011;1736;52.068;6.968;2023-03-20T06:13:46;19.03;;;7.70;;
3443;SDS011;1736;52.068;6.968;2023-03-20T06:16:13;14.60;;;8.47;;
3443;SDS011;1736;52.068;6.968;2023-03-20T06:18:39;15.27;;;8.47;;
3443;SDS011;1736;52.068;6.968;2023-03-20T06:21:06;14.03;;;8.17;;
3443;SDS011;1736;52.068;6.968;2023-03-20T06:23:33;13.67;;;8.00;;
3443;SDS011;1736;52.068;6.968;2023-03-20T06:26:00;16.13;;;8.60;;
3443;SDS011;1736;52.068;6.968;2023-03-20T06:28:28;24.13;;;8.80;;
3443;SDS011;1736;52.068;6.968;2023-03-20T06:30:54;18.63;;;8.87;;
3443;SDS011;1736;52.068;6.968;2023-03-20T06:33:21;16.03;;;8.50;;
3443;SDS011;1736;52.068;6.968;2023-03-20T06:35:48;15.53;;;7.73;;
3443;SDS011;1736;52.068;6.968;2023-03-20T06:38:14;11.90;;;7.60;;
3443;SDS011;1736;52.068;6.968;2023-03-20T06:40:41;15.03;;;8.43;;
3443;SDS011;1736;52.068;6.968;2023-03-20T06:43:09;16.80;;;9.07;;
3443;SDS011;1736;52.068;6.968;2023-03-20T06:45:37;15.57;;;8.20;;
3443;SDS011;1736;52.068;6.968;2023-03-20T06:48:04;14.73;;;7.67;;
3443;SDS011;1736;52.068;6.968;2023-03-20T06:50:31;16.93;;;8.00;;
3443;SDS011;1736;52.068;6.968;2023-03-20T06:52:58;14.43;;;8.07;;
3443;SDS011;1736;52.068;6.968;2023-03-20T06:55:24;17.87;;;8.40;;
3443;SDS011;1736;52.068;6.968;2023-03-20T06:57:51;13.97;;;8.60;;
3443;SDS011;1736;52.068;6.968;2023-03-20T07:00:18;14.40;;;7.50;;
3443;SDS011;1736;52.068;6.968;2023-03-20T07:02:47;14.40;;;7.93;;
3443;SDS011;1736;52.068;6.968;2023-03-20T07:05:14;13.40;;;7.60;;
3443;SDS011;1736;52.068;6.968;2023-03-20T07:07:41;13.13;;;7.80;;
3443;SDS011;1736;52.068;6.968;2023-03-20T07:10:08;18.23;;;8.00;;
3443;SDS011;1736;52.068;6.968;2023-03-20T07:12:36;14.33;;;7.93;;
3443;SDS011;1736;52.068;6.968;2023-03-20T07:15:03;13.80;;;7.53;;
3443;SDS011;1736;52.068;6.968;2023-03-20T07:17:30;12.20;;;6.40;;
3443;SDS011;1736;52.068;6.968;2023-03-20T07:19:58;12.70;;;7.43;;
3443;SDS011;1736;52.068;6.968;2023-03-20T07:22:26;11.50;;;7.23;;
3443;SDS011;1736;52.068;6.968;2023-03-20T07:24:53;15.27;;;7.70;;
3443;SDS011;1736;52.068;6.968;2023-03-20T07:27:21;13.57;;;7.53;;
3443;SDS011;1736;52.068;6.968;2023-03-20T07:29:47;14.00;;;7.20;;
3443;SDS011;1736;52.068;6.968;2023-03-20T07:32:14;11.13;;;6.60;;
3443;SDS011;1736;52.068;6.968;2023-03-20T07:34:41;15.93;;;7.00;;
3443;SDS011;1736;52.068;6.968;2023-03-20T07:37:09;12.60;;;6.33;;
3443;SDS011;1736;52.068;6.968;2023-03-20T07:39:36;14.00;;;7.87;;
3443;SDS011;1736;52.068;6.968;2023-03-20T07:42:02;15.47;;;6.57;;
3443;SDS011;1736;52.068;6.968;2023-03-20T07:44:29;14.07;;;7.17;;
3443;SDS011;1736;52.068;6.968;2023-03-20T07:46:56;13.73;;;6.73;;
3443;SDS011;1736;52.068;6.968;2023-03-20T07:49:22;16.27;;;6.40;;
3443;SDS011;1736;52.068;6.968;2023-03-20T07:51:50;11.93;;;6.70;;
3443;SDS011;1736;52.068;6.968;2023-03-20T07:54:19;17.60;;;7.27;;
3443;SDS011;1736;52.068;6.968;2023-03-20T07:56:46;17.50;;;6.67;;
3443;SDS011;1736;52.068;6.968;2023-03-20T07:59:13;13.20;;;7.30;;
3443;SDS011;1736;52.068;6.968;2023-03-20T08:01:39;19.13;;;6.77;;
3443;SDS011;1736;52.068;6.968;2023-03-20T08:04:06;9.57;;;6.10;;
3443;SDS011;1736;52.068;6.968;2023-03-20T08:06:32;12.60;;;6.70;;
3443;SDS011;1736;52.068;6.968;2023-03-20T08:08:59;11.63;;;6.20;;
3443;SDS011;1736;52.068;6.968;2023-03-20T08:11:28;13.13;;;6.57;;
3443;SDS011;1736;52.068;6.968;2023-03-20T08:13:54;13.50;;;5.80;;
3443;SDS011;1736;52.068;6.968;2023-03-20T08:16:21;12.33;;;6.67;;
3443;SDS011;1736;52.068;6.968;2023-03-20T08:18:47;10.37;;;6.60;;
3443;SDS011;1736;52.068;6.968;2023-03-20T08:21:14;11.90;;;6.00;;
3443;SDS011;1736;52.068;6.968;2023-03-20T08:23:41;10.43;;;5.93;;
3443;SDS011;1736;52.068;6.968;2023-03-20T08:26:08;10.43;;;6.87;;
3443;SDS011;1736;52.068;6.968;2023-03-20T08:28:36;12.57;;;6.60;;
3443;SDS011;1736;52.068;6.968;2023-03-20T08:31:06;12.93;;;6.53;;
3443;SDS011;1736;52.068;6.968;2023-03-20T08:33:33;9.13;;;5.70;;
3443;SDS011;1736;52.068;6.968;2023-03-20T08:35:59;10.80;;;6.20;;
3443;SDS011;1736;52.068;6.968;2023-03-20T08:38:26;11.03;;;6.40;;
3443;SDS011;1736;52.068;6.968;2023-03-20T08:40:52;12.00;;;6.43;;
3443;SDS011;1736;52.068;6.968;2023-03-20T08:43:19;9.80;;;5.60;;
3443;SDS011;1736;52.068;6.968;2023-03-20T08:45:47;12.23;;;5.67;;
3443;SDS011;1736;52.068;6.968;2023-03-20T08:48:14;11.23;;;5.50;;
3443;SDS011;1736;52.068;6.968;2023-03-20T08:50:41;10.60;;;5.63;;
3443;SDS011;1736;52.068;6.968;2023-03-20T08:53:08;9.97;;;5.60;;
3443;SDS011;1736;52.068;6.968;2023-03-20T08:55:35;7.17;;;5.03;;
3443;SDS011;1736;52.068;6.968;2023-03-20T08:58:02;11.40;;;5.70;;
3443;SDS011;1736;52.068;6.968;2023-03-20T09:00:28;9.03;;;5.27;;
3443;SDS011;1736;52.068;6.968;2023-03-20T09:02:57;7.50;;;4.50;;
3443;SDS011;1736;52.068;6.968;2023-03-20T09:05:23;9.87;;;4.97;;
3443;SDS011;1736;52.068;6.968;2023-03-20T09:07:50;10.93;;;4.37;;
3443;SDS011;1736;52.068;6.968;2023-03-20T09:10:17;7.57;;;4.97;;
3443;SDS011;1736;52.068;6.968;2023-03-20T09:12:43;10.10;;;4.87;;
3443;SDS011;1736;52.068;6.968;2023-03-20T09:15:10;10.63;;;4.90;;
3443;SDS011;1736;52.068;6.968;2023-03-20T09:17:37;8.50;;;4.47;;
3443;SDS011;1736;52.068;6.968;2023-03-20T09:20:05;8.80;;;4.77;;
3443;SDS011;1736;52.068;6.968;2023-03-20T09:22:33;6.60;;;4.30;;
3443;SDS011;1736;52.068;6.968;2023-03-20T09:25:00;7.73;;;4.03;;
3443;SDS011;1736;52.068;6.968;2023-03-20T09:27:26;6.33;;;4.07;;
3443;SDS011;1736;52.068;6.968;2023-03-20T09:29:53;10.47;;;4.47;;
3443;SDS011;1736;52.068;6.968;2023-03-20T09:32:19;8.10;;;4.53;;
3443;SDS011;1736;52.068;6.968;2023-03-20T09:34:46;5.23;;;4.27;;
3443;SDS011;1736;52.068;6.968;2023-03-20T09:37:14;9.30;;;4.30;;
3443;SDS011;1736;52.068;6.968;2023-03-20T09:39:40;7.40;;;4.00;;
3443;SDS011;1736;52.068;6.968;2023-03-20T09:42:07;6.43;;;4.07;;
3443;SDS011;1736;52.068;6.968;2023-03-20T09:44:50;7.17;;;4.27;;
3443;SDS011;1736;52.068;6.968;2023-03-20T09:47:24;4.60;;;3.93;;
3443;SDS011;1736;52.068;6.968;2023-03-20T09:50:00;8.33;;;3.83;;
3443;SDS011;1736;52.068;6.968;2023-03-20T09:52:41;7.10;;;3.93;;
3443;SDS011;1736;52.068;6.968;2023-03-20T09:55:16;8.67;;;3.20;;
3443;SDS011;1736;52.068;6.968;2023-03-20T09:57:48;9.17;;;4.80;;
3443;SDS011;1736;52.068;6.968;2023-03-20T10:00:18;6.37;;;3.70;;
3443;SDS011;1736;52.068;6.968;2023-03-20T10:02:47;10.30;;;3.90;;
3443;SDS011;1736;52.068;6.968;2023-03-20T10:05:19;6.63;;;4.20;;
3443;SDS011;1736;52.068;6.968;2023-03-20T10:07:50;6.67;;;3.23;;
3443;SDS011;1736;52.068;6.968;2023-03-20T10:10:19;4.63;;;3.40;;
3443;SDS011;1736;52.068;6.968;2023-03-20T10:12:56;4.90;;;3.33;;
3443;SDS011;1736;52.068;6.968;2023-03-20T10:15:34;6.40;;;3.27;;
3443;SDS011;1736;52.068;6.968;2023-03-20T10:18:10;9.00;;;4.00;;
3443;SDS011;1736;52.068;6.968;2023-03-20T10:20:44;7.37;;;3.67;;
3443;SDS011;1736;52.068;6.968;2023-03-20T10:23:19;6.73;;;3.80;;
3443;SDS011;1736;52.068;6.968;2023-03-20T10:25:52;7.73;;;3.27;;
3443;SDS011;1736;52.068;6.968;2023-03-20T10:28:23;6.50;;;3.30;;
3443;SDS011;1736;52.068;6.968;2023-03-20T10:30:58;3.97;;;2.80;;
3443;SDS011;1736;52.068;6.968;2023-03-20T10:33:40;3.33;;;2.90;;
3443;SDS011;1736;52.068;6.968;2023-03-20T10:36:22;4.10;;;2.90;;
3443;SDS011;1736;52.068;6.968;2023-03-20T10:39:02;6.03;;;3.20;;
3443;SDS011;1736;52.068;6.968;2023-03-20T10:41:35;11.60;;;2.90;;
3443;SDS011;1736;52.068;6.968;2023-03-20T10:44:05;6.83;;;3.17;;
3443;SDS011;1736;52.068;6.968;2023-03-20T10:46:40;4.53;;;3.23;;
3443;SDS011;1736;52.068;6.968;2023-03-20T10:49:11;7.00;;;3.10;;
3443;SDS011;1736;52.068;6.968;2023-03-20T10:51:45;11.87;;;3.23;;
3443;SDS011;1736;52.068;6.968;2023-03-20T10:54:21;6.00;;;3.00;;
3443;SDS011;1736;52.068;6.968;2023-03-20T10:56:50;4.80;;;3.03;;
3443;SDS011;1736;52.068;6.968;2023-03-20T10:59:21;5.53;;;3.13;;
3443;SDS011;1736;52.068;6.968;2023-03-20T11:01:50;5.67;;;3.40;;
3443;SDS011;1736;52.068;6.968;2023-03-20T11:04:16;4.13;;;2.77;;
3443;SDS011;1736;52.068;6.968;2023-03-20T11:06:45;5.97;;;3.33;;
3443;SDS011;1736;52.068;6.968;2023-03-20T11:09:19;10.80;;;3.53;;
3443;SDS011;1736;52.068;6.968;2023-03-20T11:11:47;5.17;;;2.70;;
3443;SDS011;1736;52.068;6.968;2023-03-20T11:14:17;4.90;;;2.80;;
3443;SDS011;1736;52.068;6.968;2023-03-20T11:16:46;4.47;;;3.13;;
3443;SDS011;1736;52.068;6.968;2023-03-20T11:19:13;9.93;;;3.40;;
3443;SDS011;1736;52.068;6.968;2023-03-20T11:21:45;6.27;;;3.17;;
3443;SDS011;1736;52.068;6.968;2023-03-20T11:24:23;8.00;;;3.20;;
3443;SDS011;1736;52.068;6.968;2023-03-20T11:26:53;8.90;;;3.20;;
3443;SDS011;1736;52.068;6.968;2023-03-20T11:29:30;8.43;;;3.30;;
3443;SDS011;1736;52.068;6.968;2023-03-20T11:32:02;4.87;;;3.70;;
3443;SDS011;1736;52.068;6.968;2023-03-20T11:34:32;6.67;;;3.23;;
3443;SDS011;1736;52.068;6.968;2023-03-20T11:37:05;5.83;;;3.57;;
3443;SDS011;1736;52.068;6.968;2023-03-20T11:39:53;7.13;;;2.93;;
3443;SDS011;1736;52.068;6.968;2023-03-20T11:42:23;4.70;;;2.93;;
3443;SDS011;1736;52.068;6.968;2023-03-20T11:44:55;5.97;;;2.70;;
3443;SDS011;1736;52.068;6.968;2023-03-20T11:47:24;3.50;;;2.40;;
3443;SDS011;1736;52.068;6.968;2023-03-20T11:49:53;2.70;;;2.50;;
3443;SDS011;1736;52.068;6.968;2023-03-20T11:52:21;6.57;;;2.60;;
3443;SDS011;1736;52.068;6.968;2023-03-20T11:54:53;3.87;;;2.37;;
3443;SDS011;1736;52.068;6.968;2023-03-20T11:57:27;4.67;;;2.53;;
3443;SDS011;1736;52.068;6.968;2023-03-20T11:59:57;4.57;;;3.00;;
3443;SDS011;1736;52.068;6.968;2023-03-20T12:02:28;5.50;;;2.80;;
3443;SDS011;1736;52.068;6.968;2023-03-20T12:04:57;8.63;;;3.50;;
3443;SDS011;1736;52.068;6.968;2023-03-20T12:07:26;11.50;;;4.23;;
3443;SDS011;1736;52.068;6.968;2023-03-20T12:09:58;7.40;;;4.30;;
3443;SDS011;1736;52.068;6.968;2023-03-20T12:12:32;10.97;;;4.40;;
3443;SDS011;1736;52.068;6.968;2023-03-20T12:15:07;7.00;;;3.80;;
3443;SDS011;1736;52.068;6.968;2023-03-20T12:17:45;5.13;;;3.50;;
3443;SDS011;1736;52.068;6.968;2023-03-20T12:23:05;8.13;;;3.93;;
3443;SDS011;1736;52.068;6.968;2023-03-20T12:25:41;9.20;;;5.17;;
3443;SDS011;1736;52.068;6.968;2023-03-20T12:28:17;7.60;;;4.17;;
3443;SDS011;1736;52.068;6.968;2023-03-20T12:30:52;8.00;;;4.83;;
3443;SDS011;1736;52.068;6.968;2023-03-20T12:33:30;9.80;;;4.40;;
3443;SDS011;1736;52.068;6.968;2023-03-20T12:36:07;7.23;;;5.00;;
3443;SDS011;1736;52.068;6.968;2023-03-20T12:38:39;8.70;;;5.60;;
3443;SDS011;1736;52.068;6.968;2023-03-20T12:41:09;6.83;;;5.63;;
3443;SDS011;1736;52.068;6.968;2023-03-20T12:43:41;11.73;;;5.20;;
3443;SDS011;1736;52.068;6.968;2023-03-20T12:46:23;9.00;;;5.40;;
3443;SDS011;1736;52.068;6.968;2023-03-20T12:48:55;9.03;;;5.53;;
3443;SDS011;1736;52.068;6.968;2023-03-20T12:51:32;10.60;;;5.60;;
3443;SDS011;1736;52.068;6.968;2023-03-20T12:57:03;9.10;;;5.07;;
3443;SDS011;1736;52.068;6.968;2023-03-20T12:59:43;9.03;;;5.67;;
3443;SDS011;1736;52.068;6.968;2023-03-20T13:02:22;9.67;;;5.00;;
3443;SDS011;1736;52.068;6.968;2023-03-20T13:04:58;8.47;;;4.70;;
3443;SDS011;1736;52.068;6.968;2023-03-20T13:07:38;10.30;;;4.60;;
3443;SDS011;1736;52.068;6.968;2023-03-20T13:10:17;7.33;;;3.97;;
3443;SDS011;1736;52.068;6.968;2023-03-20T13:12:51;5.40;;;3.60;;
3443;SDS011;1736;52.068;6.968;2023-03-20T13:15:29;7.50;;;3.67;;
3443;SDS011;1736;52.068;6.968;2023-03-20T13:18:07;5.80;;;3.53;;
3443;SDS011;1736;52.068;6.968;2023-03-20T13:20:40;7.70;;;4.17;;
3443;SDS011;1736;52.068;6.968;2023-03-20T13:23:24;11.90;;;4.13;;
3443;SDS011;1736;52.068;6.968;2023-03-20T13:28:46;6.17;;;4.10;;
3443;SDS011;1736;52.068;6.968;2023-03-20T13:31:21;6.57;;;4.20;;
3443;SDS011;1736;52.068;6.968;2023-03-20T13:33:55;5.53;;;4.00;;
3443;SDS011;1736;52.068;6.968;2023-03-20T13:36:34;8.17;;;5.17;;
3443;SDS011;1736;52.068;6.968;2023-03-20T13:39:16;7.53;;;4.23;;
3443;SDS011;1736;52.068;6.968;2023-03-20T13:41:47;7.53;;;3.83;;
3443;SDS011;1736;52.068;6.968;2023-03-20T13:44:16;5.90;;;3.90;;
3443;SDS011;1736;52.068;6.968;2023-03-20T13:46:45;6.93;;;4.37;;
3443;SDS011;1736;52.068;6.968;2023-03-20T13:49:18;9.00;;;4.67;;
3443;SDS011;1736;52.068;6.968;2023-03-20T13:51:50;6.20;;;3.47;;
3443;SDS011;1736;52.068;6.968;2023-03-20T13:54:36;5.40;;;3.43;;
3443;SDS011;1736;52.068;6.968;2023-03-20T13:57:14;8.20;;;3.50;;
3443;SDS011;1736;52.068;6.968;2023-03-20T14:00:02;9.90;;;3.80;;
3443;SDS011;1736;52.068;6.968;2023-03-20T14:02:50;4.47;;;3.47;;
3443;SDS011;1736;52.068;6.968;2023-03-20T14:05:34;4.30;;;3.80;;
3443;SDS011;1736;52.068;6.968;2023-03-20T14:10:50;5.53;;;3.60;;
3443;SDS011;1736;52.068;6.968;2023-03-20T14:13:20;8.10;;;4.00;;
3443;SDS011;1736;52.068;6.968;2023-03-20T14:15:51;6.97;;;3.97;;
3443;SDS011;1736;52.068;6.968;2023-03-20T14:18:20;7.93;;;3.40;;
3443;SDS011;1736;52.068;6.968;2023-03-20T14:20:53;5.50;;;3.80;;
3443;SDS011;1736;52.068;6.968;2023-03-20T14:23:26;7.00;;;3.83;;
3443;SDS011;1736;52.068;6.968;2023-03-20T14:25:59;12.07;;;4.00;;
3443;SDS011;1736;52.068;6.968;2023-03-20T14:28:29;6.23;;;3.53;;
3443;SDS011;1736;52.068;6.968;2023-03-20T14:33:52;4.50;;;3.50;;
3443;SDS011;1736;52.068;6.968;2023-03-20T14:36:25;7.03;;;3.40;;
3443;SDS011;1736;52.068;6.968;2023-03-20T14:39:09;8.23;;;3.77;;
3443;SDS011;1736;52.068;6.968;2023-03-20T14:41:48;5.70;;;3.03;;
3443;SDS011;1736;52.068;6.968;2023-03-20T14:44:26;8.30;;;3.40;;
3443;SDS011;1736;52.068;6.968;2023-03-20T14:47:07;4.77;;;3.83;;
3443;SDS011;1736;52.068;6.968;2023-03-20T14:49:47;4.93;;;3.67;;
3443;SDS011;1736;52.068;6.968;2023-03-20T14:52:22;6.97;;;3.70;;
3443;SDS011;1736;52.068;6.968;2023-03-20T14:54:57;5.03;;;3.50;;
3443;SDS011;1736;52.068;6.968;2023-03-20T14:57:40;7.17;;;3.60;;
3443;SDS011;1736;52.068;6.968;2023-03-20T15:00:15;4.43;;;3.53;;
3443;SDS011;1736;52.068;6.968;2023-03-20T15:02:45;5.83;;;3.50;;
3443;SDS011;1736;52.068;6.968;2023-03-20T15:05:20;9.23;;;4.07;;
3443;SDS011;1736;52.068;6.968;2023-03-20T15:07:50;5.17;;;3.67;;
3443;SDS011;1736;52.068;6.968;2023-03-20T15:10:17;5.50;;;3.27;;
3443;SDS011;1736;52.068;6.968;2023-03-20T15:12:44;7.20;;;3.90;;
3443;SDS011;1736;52.068;6.968;2023-03-20T15:15:22;6.30;;;4.77;;
3443;SDS011;1736;52.068;6.968;2023-03-20T15:17:52;6.00;;;4.03;;
3443;SDS011;1736;52.068;6.968;2023-03-20T15:20:19;8.77;;;4.50;;
3443;SDS011;1736;52.068;6.968;2023-03-20T15:22:47;15.67;;;3.60;;
3443;SDS011;1736;52.068;6.968;2023-03-20T15:25:15;8.00;;;4.30;;
3443;SDS011;1736;52.068;6.968;2023-03-20T15:27:43;8.17;;;5.70;;
3443;SDS011;1736;52.068;6.968;2023-03-20T15:30:11;9.80;;;4.60;;
3443;SDS011;1736;52.068;6.968;2023-03-20T15:32:40;11.57;;;5.80;;
3443;SDS011;1736;52.068;6.968;2023-03-20T15:35:10;7.57;;;5.03;;
3443;SDS011;1736;52.068;6.968;2023-03-20T15:37:38;9.70;;;5.10;;
3443;SDS011;1736;52.068;6.968;2023-03-20T15:40:09;6.90;;;4.80;;
3443;SDS011;1736;52.068;6.968;2023-03-20T15:42:37;13.73;;;5.73;;
3443;SDS011;1736;52.068;6.968;2023-03-20T15:45:11;11.30;;;4.73;;
3443;SDS011;1736;52.068;6.968;2023-03-20T15:47:46;8.50;;;4.70;;
3443;SDS011;1736;52.068;6.968;2023-03-20T15:50:14;12.40;;;5.53;;
3443;SDS011;1736;52.068;6.968;2023-03-20T15:52:42;13.43;;;5.90;;